Pagrindinis puslapis
METAR-TAF:

METAR-TAF

Oro uostai :

Kamranio oro uostas

Kamranis, Vietnamas

platuma: 11-59-53N, ilguma: 109-13-10E, Aukštis: 12 m

Dabartinis oras

Ataskaita buvo paskelbta 32 minutes, ne 03:30 UTC
Vėjas 7 kt iš Šiaurės/Šiaurės Rytų
Temperatūra 29°C
Drėgmė 74%
Slėgis 1014 hPa
Matomumas 10 km arba daugiau
Mažai debesys ne aukštis 1500 ft
Išsisklaidę debesys ne aukštis 5000 ft

METAR: VVCR 290330Z 03007KT 9999 FEW015 SCT050 29/24 Q1014 NOSIG

Laikas: 11:02 (04:02 UTC)

Prognozė

Ataskaita buvo paskelbta 5 valandos ir 2 minutes, ne 23:00 UTC
Prognozė galioja nuo 29 metu 00 UTC su 29 metu 24 UTC
Vėjas 4 kt iš Šiaurės/Šiaurės Vakarų
Matomumas 10 km arba daugiau
Mažai debesys ne aukštis 1500 ft
Tapsmas
nuo 29 metu 02 UTC su 29 metu 03 UTC
Vėjas 14 kt iš Šiaurės Rytų
Tapsmas
nuo 29 metu 15 UTC su 29 metu 16 UTC
Vėjas 5 kt iš Šiaurės/Šiaurės Vakarų

TAF: VVCR 282300Z 2900/2924 34004KT 9999 FEW015 BECMG 2902/2903 04014KT BECMG 2915/2916 34005KT

Orai ataskaitas ir orų prognozės (METAR, TAF).

turimą stotys yra geltonos ir raudonos taškus žemėlapyje.

Perkelti pele per norėdami pamatyti stoties vardą.

Tada spustelėkite, norėdami matyti oro stebėjimo ir prognozės.

Norėdami pakeisti žemėlapį: spustelėkite ant žalios mygtukų su juodo kryžiaus žemyn,; žalią mygtuką su brūkšneliu, jei norite nutolinti; arba žalių rodyklių gretimoms žemėlapius.


METAR-TAF: